Time;durP1;ratioP1;P1;durP2;ratioP2;P2;SDS_P1;SDS_P2;PMS_P1;PMS_P2;Temp;Humidity;BMP_temperature;BMP_pressure;BME280_temperature;BME280_humidity;BME280_pressure;Samples;Min_cycle;Max_cycle;Signal;HPM_P1;HPM_P2
2022/06/08 00:00:23;;;;;;;8.77;7.03;;;;;;;14.28;100.00;100348.53;682648;28;4910;-44
2022/06/08 00:00:47;;;;;;;8.75;7.05;;;;;;;14.27;100.00;100349.41;676116;29;1014;-45
2022/06/08 00:01:12;;;;;;;9.15;6.90;;;;;;;14.25;100.00;100344.19;677902;29;1158;-44
2022/06/08 00:01:33;;;;;;;10.20;7.15;;;;;;;14.25;100.00;100349.47;678500;28;1141;-43
2022/06/08 00:01:54;;;;;;;9.38;6.90;;;;;;;14.25;100.00;100344.19;678732;28;1120;-43
2022/06/08 00:02:15;;;;;;;9.45;6.88;;;;;;;14.23;100.00;100340.75;679603;29;1699;-44
2022/06/08 00:02:36;;;;;;;10.38;7.10;;;;;;;14.22;100.00;100349.53;679543;29;1308;-43
2022/06/08 00:03:13;;;;;;;8.80;7.05;;;;;;;14.21;100.00;100350.44;679752;28;1252;-43
2022/06/08 00:03:40;;;;;;;9.93;7.38;;;;;;;14.21;100.00;100350.44;681551;28;5048;-44
2022/06/08 00:04:02;;;;;;;9.38;7.20;;;;;;;14.26;100.00;100345.06;680235;28;1611;-44
2022/06/08 00:04:23;;;;;;;9.82;7.07;;;;;;;14.22;100.00;100346.03;682799;28;1195;-44
2022/06/08 00:04:44;;;;;;;8.77;6.70;;;;;;;14.20;100.00;100346.06;682474;28;1327;-44
2022/06/08 00:05:05;;;;;;;8.00;6.57;;;;;;;14.21;100.00;100346.97;682640;28;1310;-45
2022/06/08 00:05:26;;;;;;;8.07;6.43;;;;;;;14.19;100.00;100343.50;682864;28;1069;-44
2022/06/08 00:05:47;;;;;;;8.30;6.60;;;;;;;14.18;100.00;100353.16;682087;28;1150;-44
2022/06/08 00:06:07;;;;;;;8.30;6.50;;;;;;;14.17;100.00;100351.41;682429;28;4349;-45
2022/06/08 00:06:28;;;;;;;9.23;6.78;;;;;;;14.14;100.00;100347.09;680607;28;1609;-46
2022/06/08 00:06:52;;;;;;;10.10;7.00;;;;;;;14.12;100.00;100350.66;681373;28;1078;-43
2022/06/08 00:07:12;;;;;;;10.02;7.18;;;;;;;14.11;100.00;100351.59;682268;28;1010;-43
2022/06/08 00:07:33;;;;;;;9.67;7.37;;;;;;;14.07;100.00;100350.78;682416;28;1246;-43
2022/06/08 00:07:53;;;;;;;10.10;7.25;;;;;;;14.04;100.00;100350.88;685318;28;1315;-42
2022/06/08 00:08:14;;;;;;;10.23;7.37;;;;;;;14.02;100.00;100354.44;684993;28;1286;-43
2022/06/08 00:08:34;;;;;;;10.60;7.50;;;;;;;14.00;100.00;100350.94;685012;28;1298;-46
2022/06/08 00:08:54;;;;;;;8.30;7.00;;;;;;;14.00;100.00;100353.56;684381;28;1242;-44
2022/06/08 00:09:15;;;;;;;10.20;6.83;;;;;;;14.01;100.00;100357.94;684119;28;4288;-43
2022/06/08 00:09:36;;;;;;;10.48;6.63;;;;;;;14.02;100.00;100354.44;685907;28;1303;-42
2022/06/08 00:09:56;;;;;;;9.27;6.85;;;;;;;14.01;100.00;100355.31;684544;28;1123;-43
2022/06/08 00:10:16;;;;;;;10.47;7.40;;;;;;;14.00;100.00;100353.56;683064;28;1182;-43
2022/06/08 00:10:37;;;;;;;10.93;6.97;;;;;;;13.99;100.00;100351.88;681831;28;1263;-43
2022/06/08 00:10:57;;;;;;;10.05;7.13;;;;;;;13.96;100.00;100352.81;681973;28;1150;-43
2022/06/08 00:11:18;;;;;;;9.17;7.00;;;;;;;13.96;100.00;100353.66;682844;28;1283;-42
2022/06/08 00:11:39;;;;;;;9.98;7.30;;;;;;;13.96;100.00;100351.03;682358;28;1323;-43
2022/06/08 00:12:01;;;;;;;9.23;7.20;;;;;;;13.95;100.00;100349.28;681502;28;4934;-43
2022/06/08 00:12:21;;;;;;;9.10;7.05;;;;;;;13.94;100.00;100355.47;682361;28;1449;-44
2022/06/08 00:12:42;;;;;;;9.17;7.03;;;;;;;13.93;100.00;100356.38;682937;28;1526;-43
2022/06/08 00:13:03;;;;;;;8.85;6.97;;;;;;;13.92;100.00;100357.25;681975;28;1210;-43
2022/06/08 00:13:23;;;;;;;8.55;6.70;;;;;;;13.92;100.00;100359.03;685134;28;1188;-44
2022/06/08 00:13:44;;;;;;;9.33;6.90;;;;;;;13.92;100.00;100359.88;684831;28;1175;-44
2022/06/08 00:14:05;;;;;;;9.88;6.80;;;;;;;13.90;100.00;100353.81;685065;28;1302;-43
2022/06/08 00:14:26;;;;;;;9.38;6.80;;;;;;;13.89;100.00;100359.97;685795;28;1231;-43
2022/06/08 00:14:46;;;;;;;8.67;6.90;;;;;;;13.89;100.00;100357.34;684993;28;3621;-43
2022/06/08 00:15:09;;;;;;;9.13;7.20;;;;;;;13.91;100.00;100347.63;678026;28;4600;-43
2022/06/08 00:15:30;;;;;;;9.02;6.80;;;;;;;13.92;100.00;100362.50;679389;29;1213;-44
2022/06/08 00:15:50;;;;;;;8.80;6.72;;;;;;;13.92;100.00;100357.25;679358;28;1442;-44
2022/06/08 00:16:13;;;;;;;8.87;6.70;;;;;;;13.92;100.00;100357.25;679448;29;1173;-43
2022/06/08 00:16:33;;;;;;;9.82;6.93;;;;;;;13.92;100.00;100349.38;678853;29;1359;-47
2022/06/08 00:16:54;;;;;;;9.93;7.00;;;;;;;13.92;100.00;100356.41;680177;28;1232;-45
2022/06/08 00:17:14;;;;;;;9.57;7.20;;;;;;;13.93;100.00;100358.16;682563;28;1243;-44
2022/06/08 00:17:34;;;;;;;8.25;6.72;;;;;;;13.94;100.00;100344.06;682521;28;1216;-46
2022/06/08 00:17:56;;;;;;;7.97;6.60;;;;;;;13.96;100.00;100350.19;682381;28;1256;-44
2022/06/08 00:18:16;;;;;;;8.35;6.47;;;;;;;13.97;100.00;100344.03;681847;28;4759;-46
2022/06/08 00:18:39;;;;;;;9.50;6.77;;;;;;;13.98;100.00;100352.78;681853;28;1946;-44
2022/06/08 00:18:59;;;;;;;9.27;7.05;;;;;;;13.95;100.00;100349.28;682383;28;1323;-45
2022/06/08 00:19:20;;;;;;;10.53;7.13;;;;;;;13.95;100.00;100345.81;684718;28;1422;-44
2022/06/08 00:19:40;;;;;;;9.30;7.07;;;;;;;13.94;100.00;100342.34;683789;28;1302;-46
2022/06/08 00:20:01;;;;;;;8.87;7.13;;;;;;;13.95;100.00;100353.69;683139;28;1327;-44
2022/06/08 00:20:22;;;;;;;9.00;6.82;;;;;;;13.94;100.00;100339.72;684432;28;1562;-44
2022/06/08 00:20:42;;;;;;;9.75;6.82;;;;;;;13.94;100.00;100350.22;684095;28;1135;-44
2022/06/08 00:21:03;;;;;;;10.00;6.80;;;;;;;13.94;100.00;100349.34;683775;28;4510;-44
2022/06/08 00:21:24;;;;;;;10.18;6.97;;;;;;;13.93;100.00;100348.50;678888;29;1327;-45
2022/06/08 00:21:44;;;;;;;9.70;7.20;;;;;;;13.91;100.00;100347.63;680118;28;1102;-44
2022/06/08 00:22:05;;;;;;;9.23;7.18;;;;;;;13.91;100.00;100347.63;679371;28;1288;-43
2022/06/08 00:22:25;;;;;;;9.63;7.10;;;;;;;13.92;100.00;100346.75;680034;29;1243;-44
2022/06/08 00:22:46;;;;;;;8.70;6.50;;;;;;;13.92;100.00;100346.75;679674;28;1184;-45
2022/06/08 00:23:07;;;;;;;8.20;6.73;;;;;;;13.91;100.00;100334.50;677079;29;1240;-45
2022/06/08 00:23:27;;;;;;;8.82;6.88;;;;;;;13.92;100.00;100345.91;679449;29;1308;-43
2022/06/08 00:23:48;;;;;;;9.10;7.17;;;;;;;13.91;100.00;100345.00;678903;28;1238;-45
2022/06/08 00:24:08;;;;;;;10.20;6.90;;;;;;;13.90;100.00;100339.78;679277;28;4338;-45
2022/06/08 00:24:29;;;;;;;9.65;6.95;;;;;;;13.90;100.00;100342.44;679953;29;1264;-44
2022/06/08 00:24:50;;;;;;;10.27;6.97;;;;;;;13.89;100.00;100338.94;679836;28;1403;-45
2022/06/08 00:25:11;;;;;;;10.40;7.10;;;;;;;13.91;100.00;100338.91;680348;28;1283;-45
2022/06/08 00:25:31;;;;;;;11.15;7.32;;;;;;;13.92;100.00;100341.50;678994;28;1112;-45
2022/06/08 00:25:52;;;;;;;9.23;7.20;;;;;;;13.92;100.00;100333.59;680991;28;1115;-45
2022/06/08 00:26:12;;;;;;;8.17;6.67;;;;;;;13.91;100.00;100339.75;680984;28;1066;-46
2022/06/08 00:26:32;;;;;;;8.93;6.68;;;;;;;13.89;100.00;100332.84;683375;28;1299;-44
2022/06/08 00:26:53;;;;;;;8.67;6.63;;;;;;;13.90;100.00;100345.06;683157;28;1124;-45
2022/06/08 00:27:13;;;;;;;8.63;6.50;;;;;;;13.90;100.00;100339.78;684021;28;4465;-45
2022/06/08 00:27:34;;;;;;;8.90;6.40;;;;;;;13.91;100.00;100338.91;680978;28;1287;-43
2022/06/08 00:27:55;;;;;;;8.53;6.47;;;;;;;13.88;100.00;100334.59;682726;28;1132;-44
2022/06/08 00:28:16;;;;;;;8.48;6.75;;;;;;;13.86;100.00;100341.66;681980;28;1208;-44
2022/06/08 00:28:37;;;;;;;8.63;6.45;;;;;;;13.85;100.00;100341.69;682327;28;1292;-44
2022/06/08 00:28:57;;;;;;;8.38;6.40;;;;;;;13.85;100.00;100334.66;680036;28;1217;-44
2022/06/08 00:29:18;;;;;;;8.53;6.40;;;;;;;13.84;100.00;100332.94;682766;28;1414;-46
2022/06/08 00:29:39;;;;;;;7.97;6.55;;;;;;;13.85;100.00;100334.66;683206;28;1470;-44
2022/06/08 00:30:01;;;;;;;8.70;6.85;;;;;;;13.84;100.00;100345.22;681786;28;4586;-43
2022/06/08 00:30:22;;;;;;;10.85;7.28;;;;;;;13.83;100.00;100347.00;680370;28;1506;-45
2022/06/08 00:30:43;;;;;;;9.52;7.18;;;;;;;13.81;100.00;100340.03;679131;28;1163;-44
2022/06/08 00:31:04;;;;;;;8.48;6.68;;;;;;;13.82;100.00;100339.13;679125;29;1331;-44
2022/06/08 00:31:27;;;;;;;7.93;6.30;;;;;;;13.82;100.00;100331.22;671703;29;1370;-43
2022/06/08 00:31:49;;;;;;;8.90;6.10;;;;;;;13.84;100.00;100334.69;674945;29;1313;-43
2022/06/08 00:32:10;;;;;;;9.80;6.30;;;;;;;13.86;100.00;100336.41;676914;29;1245;-44
2022/06/08 00:32:30;;;;;;;9.18;6.22;;;;;;;13.87;100.00;100332.84;679312;29;1350;-43
2022/06/08 00:32:51;;;;;;;8.03;6.10;;;;;;;13.88;100.00;100339.00;673976;29;1316;-43
2022/06/08 00:33:11;;;;;;;10.35;6.75;;;;;;;13.88;100.00;100334.59;677414;29;4406;-43
2022/06/08 00:33:32;;;;;;;8.63;5.83;;;;;;;13.88;100.00;100334.59;679243;28;2299;-43
2022/06/08 00:33:53;;;;;;;8.20;5.80;;;;;;;13.88;100.00;100334.59;679436;28;1291;-46
2022/06/08 00:34:14;;;;;;;8.07;5.90;;;;;;;13.88;100.00;100334.59;679860;28;1154;-43
2022/06/08 00:34:35;;;;;;;7.90;6.10;;;;;;;13.91;100.00;100333.66;682582;28;1236;-45
2022/06/08 00:34:56;;;;;;;7.30;5.88;;;;;;;13.90;100.00;100338.06;681331;28;1025;-44
2022/06/08 00:35:16;;;;;;;7.03;6.00;;;;;;;13.90;100.00;100337.16;681616;28;1933;-44
2022/06/08 00:35:37;;;;;;;7.23;5.97;;;;;;;13.89;100.00;100336.31;682817;28;1256;-45
2022/06/08 00:35:57;;;;;;;6.57;5.63;;;;;;;13.89;100.00;100333.69;681582;28;4612;-43
2022/06/08 00:36:18;;;;;;;6.90;5.50;;;;;;;13.91;100.00;100336.28;683079;28;1220;-44
2022/06/08 00:36:38;;;;;;;7.50;5.90;;;;;;;13.90;100.00;100331.91;678117;29;1422;-43
2022/06/08 00:36:59;;;;;;;8.23;6.13;;;;;;;13.89;100.00;100338.09;676656;29;1256;-44
2022/06/08 00:37:19;;;;;;;7.85;5.97;;;;;;;13.89;100.00;100332.84;676310;29;1240;-44
2022/06/08 00:37:41;;;;;;;7.10;5.80;;;;;;;13.88;100.00;100333.72;677640;29;1413;-44
2022/06/08 00:38:02;;;;;;;7.53;6.10;;;;;;;13.89;100.00;100330.22;676437;28;1398;-44
2022/06/08 00:38:22;;;;;;;7.60;5.80;;;;;;;13.88;100.00;100329.31;675025;29;1513;-44
2022/06/08 00:38:42;;;;;;;7.87;5.67;;;;;;;13.89;100.00;100331.06;675136;29;1938;-44
2022/06/08 00:39:04;;;;;;;8.43;5.72;;;;;;;13.88;100.00;100334.59;679143;28;4441;-46
2022/06/08 00:39:24;;;;;;;6.60;5.72;;;;;;;13.89;100.00;100330.22;680745;28;1358;-45
2022/06/08 00:39:45;;;;;;;7.68;5.70;;;;;;;13.88;100.00;100333.72;682336;28;1230;-44
2022/06/08 00:40:09;;;;;;;7.38;5.80;;;;;;;13.88;100.00;100328.47;679793;28;1320;-44
2022/06/08 00:40:42;;;;;;;7.25;5.60;;;;;;;13.89;100.00;100331.06;682728;28;2087;-43
2022/06/08 00:41:11;;;;;;;7.45;5.57;;;;;;;13.89;100.00;100332.84;683961;28;1295;-44
2022/06/08 00:41:44;;;;;;;7.13;5.70;;;;;;;13.89;100.00;100331.06;684775;28;1141;-45
2022/06/08 00:42:08;;;;;;;7.90;5.88;;;;;;;13.86;100.00;100330.25;681720;28;4899;-44
2022/06/08 00:42:29;;;;;;;8.23;6.22;;;;;;;13.83;100.00;100333.84;681423;28;1118;-45
2022/06/08 00:42:50;;;;;;;8.30;6.45;;;;;;;13.81;100.00;100330.38;681732;28;948;-45
2022/06/08 00:43:11;;;;;;;8.00;6.38;;;;;;;13.82;100.00;100329.50;679991;29;809;-47
2022/06/08 00:43:33;;;;;;;7.80;6.00;;;;;;;13.83;100.00;100330.34;680434;29;1272;-46
2022/06/08 00:43:54;;;;;;;8.70;6.10;;;;;;;13.83;100.00;100336.47;679784;28;1391;-46
2022/06/08 00:44:42;;;;;;;7.50;5.82;;;;;;;13.82;100.00;100337.38;680291;28;1259;-45
2022/06/08 00:45:09;;;;;;;8.25;6.50;;;;;;;13.79;100.00;100334.81;678228;28;4445;-44
2022/06/08 00:45:30;;;;;;;8.00;6.40;;;;;;;13.78;100.00;100333.09;677919;29;1110;-44
2022/06/08 00:45:51;;;;;;;9.38;6.88;;;;;;;13.76;100.00;100325.25;679739;28;1027;-44
2022/06/08 00:46:12;;;;;;;8.27;6.32;;;;;;;13.76;100.00;100327.88;679957;28;1279;-45
2022/06/08 00:46:33;;;;;;;7.82;6.20;;;;;;;13.75;100.00;100330.53;680005;29;1137;-46
2022/06/08 00:46:54;;;;;;;7.95;6.15;;;;;;;13.74;100.00;100326.19;681595;28;1214;-45
2022/06/08 00:47:21;;;;;;;8.27;6.10;;;;;;;13.73;100.00;100327.91;682257;28;1318;-45
2022/06/08 00:47:47;;;;;;;7.57;5.78;;;;;;;13.74;100.00;100321.78;682978;28;1548;-44
2022/06/08 00:48:08;;;;;;;7.38;5.90;;;;;;;13.72;100.00;100328.84;680697;28;4569;-45
2022/06/08 00:48:38;;;;;;;7.65;5.70;;;;;;;13.71;100.00;100331.50;681065;28;1298;-46
2022/06/08 00:49:16;;;;;;;8.05;6.30;;;;;;;13.70;100.00;100324.53;679504;28;1363;-46
2022/06/08 00:50:14;;;;;;;9.15;6.25;;;;;;;13.68;100.00;100324.56;679733;29;1102;-45
2022/06/08 00:50:44;;;;;;;8.00;6.13;;;;;;;13.70;100.00;100333.25;681388;28;1371;-44
2022/06/08 00:51:05;;;;;;;8.13;5.63;;;;;;;13.68;100.00;100321.03;680945;28;4457;-44
2022/06/08 00:51:26;;;;;;;8.48;6.00;;;;;;;13.68;100.00;100327.19;682871;28;1192;-44
2022/06/08 00:51:47;;;;;;;7.97;6.00;;;;;;;13.67;100.00;100319.34;682537;28;1254;-44
2022/06/08 00:52:08;;;;;;;7.78;5.78;;;;;;;13.66;100.00;100325.50;682515;28;1263;-45
2022/06/08 00:52:30;;;;;;;8.73;6.00;;;;;;;13.63;100.00;100323.78;682905;28;1239;-43
2022/06/08 00:52:51;;;;;;;8.05;6.38;;;;;;;13.60;100.00;100323.88;682263;28;1421;-45
2022/06/08 00:53:15;;;;;;;8.40;6.20;;;;;;;13.57;100.00;100322.16;682676;28;1326;-44
2022/06/08 00:53:43;;;;;;;7.65;6.07;;;;;;;13.55;100.00;100326.56;681630;28;1939;-44
2022/06/08 00:54:08;;;;;;;7.53;6.18;;;;;;;13.55;100.00;100317.84;679744;28;4776;-44
2022/06/08 00:54:37;;;;;;;7.38;6.10;;;;;;;13.56;100.00;100319.59;682384;28;1248;-44
2022/06/08 00:55:01;;;;;;;9.05;6.50;;;;;;;13.54;100.00;100321.38;680848;28;915;-44
2022/06/08 00:55:26;;;;;;;8.07;6.38;;;;;;;13.53;100.00;100319.66;679530;29;2129;-44
2022/06/08 00:55:47;;;;;;;8.55;6.25;;;;;;;13.50;100.00;100315.34;679729;28;1148;-45
2022/06/08 00:56:13;;;;;;;8.48;6.03;;;;;;;13.52;100.00;100320.53;677191;29;1453;-45
2022/06/08 00:56:41;;;;;;;8.75;5.93;;;;;;;13.51;100.00;100319.66;673551;29;1370;-45
2022/06/08 00:57:24;;;;;;;9.90;6.28;;;;;;;13.52;100.00;100318.78;676806;29;4454;-44
2022/06/08 00:57:52;;;;;;;7.95;5.93;;;;;;;13.55;100.00;100316.06;679886;28;1228;-43
2022/06/08 00:58:18;;;;;;;8.13;6.40;;;;;;;13.57;100.00;100318.69;682350;28;1243;-44
2022/06/08 00:58:39;;;;;;;8.48;6.10;;;;;;;13.56;100.00;100320.44;683217;28;1922;-43
2022/06/08 00:59:00;;;;;;;7.80;6.03;;;;;;;13.57;100.00;100318.69;681243;28;1114;-45
2022/06/08 00:59:21;;;;;;;8.75;5.95;;;;;;;13.58;100.00;100318.66;681773;28;1476;-46
2022/06/08 00:59:48;;;;;;;8.20;5.80;;;;;;;13.57;100.00;100313.44;683803;28;1390;-45
2022/06/08 01:00:19;;;;;;;7.80;6.20;;;;;;;13.57;100.00;100314.28;681549;28;4570;-44
2022/06/08 01:00:42;;;;;;;7.57;6.28;;;;;;;13.56;100.00;100316.97;681897;28;1786;-45
2022/06/08 01:01:02;;;;;;;8.68;6.28;;;;;;;13.55;100.00;100320.47;681826;28;987;-44
2022/06/08 01:01:25;;;;;;;7.88;6.13;;;;;;;13.55;100.00;100312.59;684395;28;1457;-45
2022/06/08 01:01:45;;;;;;;8.07;6.30;;;;;;;13.54;100.00;100317.00;682339;28;1510;-44
2022/06/08 01:02:06;;;;;;;9.23;6.30;;;;;;;13.54;100.00;100311.75;680240;29;1292;-43
2022/06/08 01:02:27;;;;;;;8.77;6.30;;;;;;;13.55;100.00;100321.31;679702;28;1444;-45
2022/06/08 01:02:49;;;;;;;7.95;6.05;;;;;;;13.56;100.00;100314.31;679557;28;1609;-46
2022/06/08 01:03:15;;;;;;;7.75;6.05;;;;;;;13.57;100.00;100314.28;675390;29;4898;-44
2022/06/08 01:03:41;;;;;;;8.50;6.20;;;;;;;13.57;100.00;100310.81;676883;29;1327;-44
2022/06/08 01:04:06;;;;;;;8.43;5.97;;;;;;;13.57;100.00;100313.44;675565;29;1433;-44
2022/06/08 01:04:29;;;;;;;7.88;5.70;;;;;;;13.57;100.00;100316.06;676431;29;1311;-47
2022/06/08 01:04:50;;;;;;;8.00;5.90;;;;;;;13.54;100.00;100314.38;671069;29;1351;-44
2022/06/08 01:05:21;;;;;;;9.20;6.10;;;;;;;13.54;100.00;100314.38;675145;29;1331;-44
2022/06/08 01:06:01;;;;;;;8.35;6.18;;;;;;;13.57;100.00;100313.44;676642;29;2428;-43
2022/06/08 01:06:24;;;;;;;8.32;6.15;;;;;;;13.56;100.00;100319.59;671911;29;5031;-43
2022/06/08 01:06:55;;;;;;;8.15;6.20;;;;;;;13.54;100.00;100314.38;676225;29;1501;-45
2022/06/08 01:07:20;;;;;;;9.00;6.57;;;;;;;13.55;100.00;100316.06;677246;29;1169;-44
2022/06/08 01:07:42;;;;;;;7.80;6.00;;;;;;;13.59;100.00;100316.88;674703;29;1368;-44
2022/06/08 01:08:14;;;;;;;8.23;6.20;;;;;;;13.56;100.00;100312.56;676592;29;1423;-44
2022/06/08 01:08:45;;;;;;;8.50;6.07;;;;;;;13.57;100.00;100316.91;676942;29;1236;-46
2022/06/08 01:09:25;;;;;;;8.10;6.15;;;;;;;13.56;100.00;100312.56;672155;29;5483;-43
2022/06/08 01:09:48;;;;;;;8.00;6.32;;;;;;;13.57;100.00;100308.19;673956;29;1531;-43
2022/06/08 01:10:17;;;;;;;7.57;5.53;;;;;;;13.58;100.00;100313.41;678287;28;1879;-44
2022/06/08 01:10:49;;;;;;;7.65;5.93;;;;;;;13.57;100.00;100309.03;679451;29;1330;-43
2022/06/08 01:11:17;;;;;;;8.68;6.15;;;;;;;13.56;100.00;100307.31;678721;28;3797;-45
2022/06/08 01:11:43;;;;;;;8.15;6.22;;;;;;;13.55;100.00;100307.34;678107;29;1367;-46
2022/06/08 01:12:12;;;;;;;9.60;6.25;;;;;;;13.53;100.00;100310.00;677340;29;4325;-43
2022/06/08 01:12:36;;;;;;;8.65;5.90;;;;;;;13.51;100.00;100303.91;677055;29;1277;-43
2022/06/08 01:13:04;;;;;;;9.98;5.82;;;;;;;13.51;100.00;100311.78;678025;29;1424;-44
2022/06/08 01:13:32;;;;;;;9.05;6.13;;;;;;;13.55;100.00;100302.09;680382;28;1214;-45
2022/06/08 01:13:59;;;;;;;7.47;6.07;;;;;;;13.57;100.00;100305.56;682065;28;1450;-43
2022/06/08 01:14:19;;;;;;;7.93;6.00;;;;;;;13.55;100.00;100308.19;683595;28;1305;-43
2022/06/08 01:14:41;;;;;;;8.07;5.82;;;;;;;13.56;100.00;100304.69;680848;28;1529;-44
2022/06/08 01:15:04;;;;;;;7.63;5.70;;;;;;;13.56;100.00;100307.31;680596;28;4416;-46
2022/06/08 01:15:27;;;;;;;8.27;5.95;;;;;;;13.55;100.00;100300.31;677196;29;1948;-45
2022/06/08 01:15:49;;;;;;;7.55;5.82;;;;;;;13.54;100.00;100303.88;677701;29;1175;-44
2022/06/08 01:16:15;;;;;;;8.15;5.88;;;;;;;13.53;100.00;100302.13;676995;29;1257;-44
2022/06/08 01:16:37;;;;;;;8.38;6.22;;;;;;;13.52;100.00;100305.66;678592;28;1047;-46
2022/06/08 01:17:03;;;;;;;8.93;6.05;;;;;;;13.51;100.00;100306.53;679092;28;1571;-45
2022/06/08 01:17:24;;;;;;;10.20;6.05;;;;;;;13.52;100.00;100303.00;679119;29;1351;-44
2022/06/08 01:17:49;;;;;;;8.98;6.13;;;;;;;13.53;100.00;100306.53;676382;29;1224;-45
2022/06/08 01:18:11;;;;;;;9.45;5.80;;;;;;;13.53;100.00;100304.75;678664;29;4481;-44
2022/06/08 01:18:32;;;;;;;8.00;5.80;;;;;;;13.52;100.00;100305.66;677081;29;1386;-45
2022/06/08 01:18:54;;;;;;;9.05;6.10;;;;;;;13.53;100.00;100302.13;678865;28;1085;-45
2022/06/08 01:19:16;;;;;;;9.88;6.03;;;;;;;13.52;100.00;100299.53;677356;29;1552;-45
2022/06/08 01:19:44;;;;;;;8.20;5.88;;;;;;;13.53;100.00;100296.88;677788;29;1308;-44
2022/06/08 01:20:05;;;;;;;8.77;5.63;;;;;;;13.52;100.00;100299.53;679425;28;1414;-44
2022/06/08 01:20:28;;;;;;;8.25;5.80;;;;;;;13.51;100.00;100303.06;678398;29;1348;-42
2022/06/08 01:20:54;;;;;;;8.88;5.65;;;;;;;13.52;100.00;100302.16;677081;29;2306;-47
2022/06/08 01:21:21;;;;;;;10.10;6.22;;;;;;;13.52;100.00;100300.38;679004;29;6666;-44
2022/06/08 01:21:49;;;;;;;9.20;5.78;;;;;;;13.52;100.00;100297.75;678648;28;1280;-45
2022/06/08 01:22:18;;;;;;;8.32;6.03;;;;;;;13.52;100.00;100297.75;675515;29;1392;-46
2022/06/08 01:22:42;;;;;;;8.15;5.90;;;;;;;13.51;100.00;100297.81;678604;28;1484;-46
2022/06/08 01:23:02;;;;;;;8.03;5.90;;;;;;;13.52;100.00;100296.91;680023;28;1391;-46
2022/06/08 01:23:23;;;;;;;7.70;5.70;;;;;;;13.52;100.00;100300.38;682551;28;1533;-44
2022/06/08 01:23:46;;;;;;;6.80;5.30;;;;;;;13.53;100.00;100296.88;681968;28;1214;-43
2022/06/08 01:24:10;;;;;;;7.05;5.45;;;;;;;13.56;100.00;100298.56;677745;28;4402;-47
2022/06/08 01:24:33;;;;;;;8.52;5.60;;;;;;;13.56;100.00;100288.91;680822;28;1086;-46
2022/06/08 01:24:55;;;;;;;9.00;5.38;;;;;;;13.58;100.00;100299.38;679936;28;1703;-44
2022/06/08 01:25:37;;;;;;;7.30;5.70;;;;;;;13.59;100.00;100283.59;677792;29;1450;-44
2022/06/08 01:26:22;;;;;;;7.75;5.65;;;;;;;13.58;100.00;100284.50;678919;28;1080;-45
2022/06/08 01:27:07;;;;;;;8.02;5.50;;;;;;;13.57;100.00;100289.81;676022;29;2209;-46
2022/06/08 01:27:41;;;;;;;9.23;5.43;;;;;;;13.56;100.00;100288.06;674921;29;5029;-42
2022/06/08 01:28:12;;;;;;;7.43;5.43;;;;;;;13.57;100.00;100288.03;679771;29;1612;-42
2022/06/08 01:28:49;;;;;;;7.53;5.05;;;;;;;13.56;100.00;100283.66;678851;29;1350;-45
2022/06/08 01:29:23;;;;;;;8.20;5.13;;;;;;;13.55;100.00;100281.94;680173;28;1288;-43
2022/06/08 01:30:11;;;;;;;8.15;5.00;;;;;;;13.58;100.00;100281.00;681237;28;1113;-42
2022/06/08 01:30:53;;;;;;;7.97;5.40;;;;;;;13.57;100.00;100279.28;676724;28;4952;-43
2022/06/08 01:31:27;;;;;;;7.82;5.50;;;;;;;13.57;100.00;100290.66;679825;29;1431;-43
2022/06/08 01:32:06;;;;;;;7.22;5.10;;;;;;;13.56;100.00;100274.94;676597;29;1112;-43
2022/06/08 01:32:33;;;;;;;7.20;5.35;;;;;;;13.56;100.00;100281.03;676870;29;1423;-45
2022/06/08 01:33:34;;;;;;;7.35;5.30;;;;;;;13.57;100.00;100282.78;677417;29;1173;-43
2022/06/08 01:34:21;;;;;;;6.47;4.80;;;;;;;13.58;100.00;100274.00;681619;28;4936;-44
2022/06/08 01:34:51;;;;;;;8.05;5.40;;;;;;;13.58;100.00;100279.25;682606;28;1485;-43
2022/06/08 01:35:17;;;;;;;7.20;5.05;;;;;;;13.59;100.00;100273.09;678677;29;2292;-43
2022/06/08 01:35:47;;;;;;;7.97;5.00;;;;;;;13.60;100.00;100268.72;676520;29;1497;-44
2022/06/08 01:36:19;;;;;;;7.18;5.00;;;;;;;13.61;100.00;100278.31;677195;29;1311;-44
2022/06/08 01:37:04;;;;;;;7.80;4.90;;;;;;;13.64;100.00;100278.25;679155;29;1438;-43
2022/06/08 01:38:00;;;;;;;6.25;4.78;;;;;;;13.64;100.00;100273.00;680523;28;1211;-45
2022/06/08 01:38:20;;;;;;;6.97;4.60;;;;;;;13.65;100.00;100273.84;681925;28;976;-44
2022/06/08 01:39:05;;;;;;;8.05;5.00;;;;;;;13.67;100.00;100277.31;681831;28;1923;-43
2022/06/08 01:39:54;;;;;;;7.25;5.10;;;;;;;13.66;100.00;100271.19;682097;28;4766;-44
2022/06/08 01:40:36;;;;;;;7.32;4.75;;;;;;;13.67;100.00;100265.03;679782;29;1292;-43
2022/06/08 01:41:18;;;;;;;7.40;4.72;;;;;;;13.68;100.00;100268.50;682180;28;1259;-43
2022/06/08 01:41:51;;;;;;;6.22;4.80;;;;;;;13.67;100.00;100267.66;682372;28;1344;-45
2022/06/08 01:42:19;;;;;;;7.88;4.85;;;;;;;13.67;100.00;100262.41;682740;28;4570;-43
2022/06/08 01:43:02;;;;;;;8.18;4.72;;;;;;;13.69;100.00;100270.25;684509;28;1452;-43
2022/06/08 01:43:26;;;;;;;6.35;4.50;;;;;;;13.69;100.00;100267.63;683795;28;1284;-43
2022/06/08 01:44:24;;;;;;;7.38;4.70;;;;;;;13.68;100.00;100271.13;680471;28;1696;-43
2022/06/08 01:45:28;;;;;;;6.72;4.68;;;;;;;13.68;100.00;100263.25;668883;29;1187;-42
2022/06/08 01:45:51;;;;;;;7.55;4.28;;;;;;;13.71;100.00;100261.44;680250;28;4934;-43
2022/06/08 01:46:26;;;;;;;6.57;4.75;;;;;;;13.71;100.00;100260.59;677222;29;1436;-44
2022/06/08 01:47:06;;;;;;;6.63;4.40;;;;;;;13.70;100.00;100258.84;679896;29;1241;-44
2022/06/08 01:47:40;;;;;;;6.75;4.45;;;;;;;13.69;100.00;100254.50;679726;29;1155;-44
2022/06/08 01:48:21;;;;;;;6.63;4.43;;;;;;;13.69;100.00;100265.00;679930;28;4307;-44
2022/06/08 01:49:11;;;;;;;6.57;4.60;;;;;;;13.68;100.00;100261.50;681475;28;1426;-44
2022/06/08 01:49:41;;;;;;;6.20;4.35;;;;;;;13.69;100.00;100257.13;682246;28;1298;-46
2022/06/08 01:50:33;;;;;;;6.72;4.70;;;;;;;13.68;100.00;100263.25;682252;28;1278;-44
2022/06/08 01:50:54;;;;;;;6.70;4.43;;;;;;;13.68;100.00;100252.75;679295;28;2176;-43
2022/06/08 01:51:22;;;;;;;6.05;4.50;;;;;;;13.67;100.00;100253.69;683031;28;4430;-43
2022/06/08 01:52:02;;;;;;;6.18;4.43;;;;;;;13.65;100.00;100264.19;681977;28;1488;-45
2022/06/08 01:52:32;;;;;;;8.18;4.55;;;;;;;13.65;100.00;100253.69;678627;28;1566;-43
2022/06/08 01:53:11;;;;;;;6.10;4.20;;;;;;;13.68;100.00;100252.75;679415;28;1303;-44
2022/06/08 01:53:53;;;;;;;7.28;4.50;;;;;;;13.67;100.00;100253.69;677215;29;1565;-46
2022/06/08 01:54:32;;;;;;;5.93;4.20;;;;;;;13.69;100.00;100251.84;673814;29;4474;-45
2022/06/08 01:54:56;;;;;;;8.65;4.57;;;;;;;13.71;100.00;100252.69;679087;28;1120;-44
2022/06/08 01:55:32;;;;;;;7.75;4.47;;;;;;;13.72;100.00;100249.16;678402;29;802;-44
2022/06/08 01:56:09;;;;;;;8.60;4.43;;;;;;;13.71;100.00;100247.44;676361;29;1203;-44
2022/06/08 01:56:39;;;;;;;7.20;4.32;;;;;;;13.70;100.00;100254.44;677538;29;1878;-43
2022/06/08 01:57:21;;;;;;;6.18;3.92;;;;;;;13.71;100.00;100253.56;678015;28;4495;-44
2022/06/08 01:57:51;;;;;;;7.28;4.13;;;;;;;13.71;100.00;100253.56;679296;28;1342;-47
2022/06/08 01:58:16;;;;;;;7.45;4.20;;;;;;;13.71;100.00;100255.31;680592;28;1157;-44
2022/06/08 01:58:50;;;;;;;5.63;4.07;;;;;;;13.69;100.00;100249.22;679856;29;1965;-44
2022/06/08 01:59:34;;;;;;;7.30;4.13;;;;;;;13.70;100.00;100250.97;677032;29;1537;-45
2022/06/08 02:00:35;;;;;;;6.35;4.20;;;;;;;13.70;100.00;100249.19;679563;28;1439;-44
2022/06/08 02:01:15;;;;;;;5.60;3.88;;;;;;;13.69;100.00;100251.84;668508;29;5165;-44
2022/06/08 02:01:54;;;;;;;5.43;4.03;;;;;;;13.69;100.00;100251.84;669824;29;1472;-45
2022/06/08 02:02:35;;;;;;;7.45;4.13;;;;;;;13.67;100.00;100245.78;679197;29;1364;-45
2022/06/08 02:03:13;;;;;;;11.13;4.30;;;;;;;13.66;100.00;100254.56;679324;28;1994;-44
2022/06/08 02:03:47;;;;;;;5.53;4.10;;;;;;;13.65;100.00;100252.84;677539;29;1275;-43
2022/06/08 02:04:17;;;;;;;5.80;4.10;;;;;;;13.59;100.00;100259.09;676866;29;938;-43
2022/06/08 02:04:38;;;;;;;5.32;4.00;;;;;;;13.57;100.00;100253.88;676306;29;845;-44
2022/06/08 02:05:20;;;;;;;5.70;4.10;;;;;;;13.56;100.00;100244.28;679890;29;1363;-43